sensor_id;sensor_type;location;lat;lon;timestamp;P1;durP1;ratioP1;P2;durP2;ratioP2
920;SDS011;447;51.332;6.778;2022-10-31T00:00:58;6.93;;;5.00;;
920;SDS011;447;51.332;6.778;2022-10-31T00:03:24;8.13;;;5.33;;
920;SDS011;447;51.332;6.778;2022-10-31T00:05:54;9.40;;;5.60;;
920;SDS011;447;51.332;6.778;2022-10-31T00:08:20;10.47;;;5.60;;
920;SDS011;447;51.332;6.778;2022-10-31T00:10:46;6.87;;;5.47;;
920;SDS011;447;51.332;6.778;2022-10-31T00:13:12;7.83;;;5.60;;
920;SDS011;447;51.332;6.778;2022-10-31T00:15:39;9.80;;;6.00;;
920;SDS011;447;51.332;6.778;2022-10-31T00:18:06;6.87;;;5.20;;
920;SDS011;447;51.332;6.778;2022-10-31T00:20:34;7.47;;;6.13;;
920;SDS011;447;51.332;6.778;2022-10-31T00:23:03;7.07;;;5.60;;
920;SDS011;447;51.332;6.778;2022-10-31T00:25:33;7.53;;;5.50;;
920;SDS011;447;51.332;6.778;2022-10-31T00:28:01;8.33;;;5.77;;
920;SDS011;447;51.332;6.778;2022-10-31T00:30:27;8.10;;;5.40;;
920;SDS011;447;51.332;6.778;2022-10-31T00:32:59;9.40;;;5.53;;
920;SDS011;447;51.332;6.778;2022-10-31T00:35:28;8.90;;;5.70;;
920;SDS011;447;51.332;6.778;2022-10-31T00:37:56;7.93;;;5.43;;
920;SDS011;447;51.332;6.778;2022-10-31T00:40:22;7.07;;;5.40;;
920;SDS011;447;51.332;6.778;2022-10-31T00:42:51;9.87;;;5.60;;
920;SDS011;447;51.332;6.778;2022-10-31T00:45:20;5.80;;;4.93;;
920;SDS011;447;51.332;6.778;2022-10-31T00:47:46;5.57;;;4.43;;
920;SDS011;447;51.332;6.778;2022-10-31T00:50:12;12.13;;;5.13;;
920;SDS011;447;51.332;6.778;2022-10-31T00:52:38;7.50;;;5.60;;
920;SDS011;447;51.332;6.778;2022-10-31T00:55:07;8.13;;;5.23;;
920;SDS011;447;51.332;6.778;2022-10-31T00:57:36;10.20;;;5.57;;
920;SDS011;447;51.332;6.778;2022-10-31T01:00:04;11.63;;;4.93;;
920;SDS011;447;51.332;6.778;2022-10-31T01:02:30;10.17;;;5.67;;
920;SDS011;447;51.332;6.778;2022-10-31T01:05:02;7.37;;;5.67;;
920;SDS011;447;51.332;6.778;2022-10-31T01:07:30;8.30;;;5.37;;
920;SDS011;447;51.332;6.778;2022-10-31T01:09:56;7.63;;;5.57;;
920;SDS011;447;51.332;6.778;2022-10-31T01:12:22;9.83;;;5.53;;
920;SDS011;447;51.332;6.778;2022-10-31T01:14:53;9.47;;;5.50;;
920;SDS011;447;51.332;6.778;2022-10-31T01:17:19;6.67;;;5.27;;
920;SDS011;447;51.332;6.778;2022-10-31T01:19:46;9.87;;;6.20;;
920;SDS011;447;51.332;6.778;2022-10-31T01:22:17;5.90;;;4.77;;
920;SDS011;447;51.332;6.778;2022-10-31T01:24:42;8.10;;;5.17;;
920;SDS011;447;51.332;6.778;2022-10-31T01:27:11;6.70;;;5.80;;
920;SDS011;447;51.332;6.778;2022-10-31T01:29:39;8.73;;;6.00;;
920;SDS011;447;51.332;6.778;2022-10-31T01:32:08;7.53;;;5.73;;
920;SDS011;447;51.332;6.778;2022-10-31T01:34:34;10.20;;;5.70;;
920;SDS011;447;51.332;6.778;2022-10-31T01:37:03;9.93;;;4.97;;
920;SDS011;447;51.332;6.778;2022-10-31T01:39:29;8.60;;;6.10;;
920;SDS011;447;51.332;6.778;2022-10-31T01:41:55;7.80;;;4.70;;
920;SDS011;447;51.332;6.778;2022-10-31T01:46:51;8.00;;;5.43;;
920;SDS011;447;51.332;6.778;2022-10-31T01:49:24;10.53;;;5.63;;
920;SDS011;447;51.332;6.778;2022-10-31T01:54:38;9.80;;;5.73;;
920;SDS011;447;51.332;6.778;2022-10-31T01:57:10;8.90;;;6.20;;
920;SDS011;447;51.332;6.778;2022-10-31T01:59:51;6.73;;;5.33;;
920;SDS011;447;51.332;6.778;2022-10-31T02:02:23;6.93;;;5.53;;
920;SDS011;447;51.332;6.778;2022-10-31T02:04:51;9.30;;;5.33;;
920;SDS011;447;51.332;6.778;2022-10-31T02:07:22;8.53;;;6.40;;
920;SDS011;447;51.332;6.778;2022-10-31T02:09:57;8.80;;;5.73;;
920;SDS011;447;51.332;6.778;2022-10-31T02:12:24;8.97;;;5.73;;
920;SDS011;447;51.332;6.778;2022-10-31T02:14:55;8.37;;;5.60;;
920;SDS011;447;51.332;6.778;2022-10-31T02:17:21;8.70;;;5.90;;
920;SDS011;447;51.332;6.778;2022-10-31T02:20:01;10.87;;;5.70;;
920;SDS011;447;51.332;6.778;2022-10-31T02:22:57;8.47;;;5.97;;
920;SDS011;447;51.332;6.778;2022-10-31T02:37:12;9.37;;;6.00;;
920;SDS011;447;51.332;6.778;2022-10-31T02:39:45;7.53;;;5.03;;
920;SDS011;447;51.332;6.778;2022-10-31T02:42:35;7.70;;;5.50;;
920;SDS011;447;51.332;6.778;2022-10-31T02:48:09;9.43;;;5.43;;
920;SDS011;447;51.332;6.778;2022-10-31T02:50:42;7.30;;;5.67;;
920;SDS011;447;51.332;6.778;2022-10-31T02:53:22;9.00;;;6.00;;
920;SDS011;447;51.332;6.778;2022-10-31T02:58:54;5.80;;;5.00;;
920;SDS011;447;51.332;6.778;2022-10-31T03:04:00;10.27;;;5.77;;
920;SDS011;447;51.332;6.778;2022-10-31T03:06:49;8.50;;;5.83;;
920;SDS011;447;51.332;6.778;2022-10-31T03:15:19;9.57;;;6.20;;
920;SDS011;447;51.332;6.778;2022-10-31T03:18:13;8.37;;;5.70;;
920;SDS011;447;51.332;6.778;2022-10-31T03:21:09;6.60;;;5.47;;
920;SDS011;447;51.332;6.778;2022-10-31T03:23:42;6.17;;;5.07;;
920;SDS011;447;51.332;6.778;2022-10-31T03:26:18;13.00;;;6.23;;
920;SDS011;447;51.332;6.778;2022-10-31T03:28:49;6.33;;;5.27;;
920;SDS011;447;51.332;6.778;2022-10-31T03:31:19;6.93;;;5.90;;
920;SDS011;447;51.332;6.778;2022-10-31T03:33:50;9.90;;;5.77;;
920;SDS011;447;51.332;6.778;2022-10-31T03:36:17;6.97;;;6.27;;
920;SDS011;447;51.332;6.778;2022-10-31T03:38:46;9.20;;;5.10;;
920;SDS011;447;51.332;6.778;2022-10-31T03:41:21;6.30;;;5.40;;
920;SDS011;447;51.332;6.778;2022-10-31T03:43:59;7.80;;;6.00;;
920;SDS011;447;51.332;6.778;2022-10-31T03:46:28;8.33;;;5.20;;
920;SDS011;447;51.332;6.778;2022-10-31T03:48:56;9.03;;;6.00;;
920;SDS011;447;51.332;6.778;2022-10-31T03:51:32;8.83;;;5.37;;
920;SDS011;447;51.332;6.778;2022-10-31T03:54:06;7.30;;;5.60;;
920;SDS011;447;51.332;6.778;2022-10-31T03:59:40;7.30;;;5.50;;
920;SDS011;447;51.332;6.778;2022-10-31T04:02:11;7.63;;;5.57;;
920;SDS011;447;51.332;6.778;2022-10-31T04:04:48;12.00;;;5.80;;
920;SDS011;447;51.332;6.778;2022-10-31T04:07:15;6.70;;;5.43;;
920;SDS011;447;51.332;6.778;2022-10-31T04:09:43;8.63;;;6.00;;
920;SDS011;447;51.332;6.778;2022-10-31T04:12:12;7.20;;;5.60;;
920;SDS011;447;51.332;6.778;2022-10-31T04:14:40;9.43;;;6.10;;
920;SDS011;447;51.332;6.778;2022-10-31T04:17:11;7.10;;;5.77;;
920;SDS011;447;51.332;6.778;2022-10-31T04:19:44;7.90;;;5.27;;
920;SDS011;447;51.332;6.778;2022-10-31T04:22:10;7.67;;;5.40;;
920;SDS011;447;51.332;6.778;2022-10-31T04:24:41;7.47;;;5.80;;
920;SDS011;447;51.332;6.778;2022-10-31T04:27:12;7.10;;;5.93;;
920;SDS011;447;51.332;6.778;2022-10-31T04:29:40;9.23;;;5.73;;
920;SDS011;447;51.332;6.778;2022-10-31T04:32:07;5.93;;;4.97;;
920;SDS011;447;51.332;6.778;2022-10-31T04:34:33;10.13;;;5.80;;
920;SDS011;447;51.332;6.778;2022-10-31T04:37:01;7.57;;;5.93;;
920;SDS011;447;51.332;6.778;2022-10-31T04:39:30;10.30;;;5.63;;
920;SDS011;447;51.332;6.778;2022-10-31T04:42:25;6.90;;;4.80;;
920;SDS011;447;51.332;6.778;2022-10-31T04:44:57;6.43;;;5.00;;
920;SDS011;447;51.332;6.778;2022-10-31T04:47:25;6.20;;;5.47;;
920;SDS011;447;51.332;6.778;2022-10-31T04:49:56;7.13;;;5.03;;
920;SDS011;447;51.332;6.778;2022-10-31T04:52:22;7.37;;;6.03;;
920;SDS011;447;51.332;6.778;2022-10-31T04:54:51;7.77;;;5.23;;
920;SDS011;447;51.332;6.778;2022-10-31T04:57:41;7.20;;;5.47;;
920;SDS011;447;51.332;6.778;2022-10-31T05:00:09;7.70;;;5.73;;
920;SDS011;447;51.332;6.778;2022-10-31T05:02:49;6.83;;;5.47;;
920;SDS011;447;51.332;6.778;2022-10-31T05:05:22;7.13;;;5.07;;
920;SDS011;447;51.332;6.778;2022-10-31T05:07:55;5.87;;;5.20;;
920;SDS011;447;51.332;6.778;2022-10-31T05:10:25;9.20;;;5.20;;
920;SDS011;447;51.332;6.778;2022-10-31T05:12:55;7.07;;;5.00;;
920;SDS011;447;51.332;6.778;2022-10-31T05:15:49;5.53;;;5.03;;
920;SDS011;447;51.332;6.778;2022-10-31T05:18:36;7.00;;;5.10;;
920;SDS011;447;51.332;6.778;2022-10-31T05:21:23;6.63;;;5.23;;
920;SDS011;447;51.332;6.778;2022-10-31T05:23:57;6.90;;;4.87;;
920;SDS011;447;51.332;6.778;2022-10-31T05:26:23;7.73;;;5.10;;
920;SDS011;447;51.332;6.778;2022-10-31T05:28:51;6.87;;;5.27;;
920;SDS011;447;51.332;6.778;2022-10-31T05:31:20;9.33;;;5.00;;
920;SDS011;447;51.332;6.778;2022-10-31T05:33:52;6.90;;;5.53;;
920;SDS011;447;51.332;6.778;2022-10-31T05:36:43;7.70;;;4.67;;
920;SDS011;447;51.332;6.778;2022-10-31T05:39:17;5.33;;;4.23;;
920;SDS011;447;51.332;6.778;2022-10-31T05:41:47;6.90;;;5.23;;
920;SDS011;447;51.332;6.778;2022-10-31T05:44:21;6.20;;;4.63;;
920;SDS011;447;51.332;6.778;2022-10-31T05:47:10;8.40;;;5.77;;
920;SDS011;447;51.332;6.778;2022-10-31T05:49:54;7.03;;;5.07;;
920;SDS011;447;51.332;6.778;2022-10-31T05:52:22;6.97;;;4.83;;
920;SDS011;447;51.332;6.778;2022-10-31T05:54:57;5.93;;;5.10;;
920;SDS011;447;51.332;6.778;2022-10-31T05:57:23;6.00;;;4.83;;
920;SDS011;447;51.332;6.778;2022-10-31T05:59:51;8.70;;;5.17;;
920;SDS011;447;51.332;6.778;2022-10-31T06:02:21;6.50;;;4.90;;
920;SDS011;447;51.332;6.778;2022-10-31T06:05:06;8.33;;;5.23;;
920;SDS011;447;51.332;6.778;2022-10-31T06:07:33;8.23;;;4.90;;
920;SDS011;447;51.332;6.778;2022-10-31T06:10:03;8.10;;;6.20;;
920;SDS011;447;51.332;6.778;2022-10-31T06:12:31;6.20;;;5.03;;
920;SDS011;447;51.332;6.778;2022-10-31T06:15:16;7.10;;;5.80;;
920;SDS011;447;51.332;6.778;2022-10-31T06:17:48;7.77;;;6.10;;
920;SDS011;447;51.332;6.778;2022-10-31T06:20:25;8.60;;;5.40;;
920;SDS011;447;51.332;6.778;2022-10-31T06:23:01;8.17;;;5.90;;
920;SDS011;447;51.332;6.778;2022-10-31T06:25:30;8.27;;;5.63;;
920;SDS011;447;51.332;6.778;2022-10-31T06:27:56;8.83;;;5.60;;
920;SDS011;447;51.332;6.778;2022-10-31T06:30:36;6.20;;;5.10;;
920;SDS011;447;51.332;6.778;2022-10-31T06:33:05;6.40;;;5.30;;
920;SDS011;447;51.332;6.778;2022-10-31T06:35:37;7.60;;;5.50;;
920;SDS011;447;51.332;6.778;2022-10-31T06:38:03;7.87;;;5.30;;
920;SDS011;447;51.332;6.778;2022-10-31T06:40:37;6.83;;;5.33;;
920;SDS011;447;51.332;6.778;2022-10-31T06:43:17;6.90;;;5.33;;
920;SDS011;447;51.332;6.778;2022-10-31T06:45:50;10.10;;;6.47;;
920;SDS011;447;51.332;6.778;2022-10-31T06:48:24;10.50;;;5.60;;
920;SDS011;447;51.332;6.778;2022-10-31T06:51:09;8.80;;;6.47;;
920;SDS011;447;51.332;6.778;2022-10-31T06:53:37;8.90;;;6.20;;
920;SDS011;447;51.332;6.778;2022-10-31T06:56:10;5.27;;;4.73;;
920;SDS011;447;51.332;6.778;2022-10-31T06:58:44;10.30;;;6.47;;
920;SDS011;447;51.332;6.778;2022-10-31T07:01:13;9.13;;;6.00;;
920;SDS011;447;51.332;6.778;2022-10-31T07:03:44;7.13;;;5.43;;
920;SDS011;447;51.332;6.778;2022-10-31T07:06:13;7.20;;;5.77;;
920;SDS011;447;51.332;6.778;2022-10-31T07:08:39;7.40;;;5.50;;
920;SDS011;447;51.332;6.778;2022-10-31T07:11:07;8.13;;;5.90;;
920;SDS011;447;51.332;6.778;2022-10-31T07:13:38;6.30;;;5.33;;
920;SDS011;447;51.332;6.778;2022-10-31T07:16:08;5.93;;;4.90;;
920;SDS011;447;51.332;6.778;2022-10-31T07:18:39;5.67;;;4.90;;
920;SDS011;447;51.332;6.778;2022-10-31T07:21:08;9.83;;;5.87;;
920;SDS011;447;51.332;6.778;2022-10-31T07:23:34;7.90;;;5.20;;
920;SDS011;447;51.332;6.778;2022-10-31T07:26:31;7.30;;;5.40;;
920;SDS011;447;51.332;6.778;2022-10-31T07:29:00;6.50;;;5.07;;
920;SDS011;447;51.332;6.778;2022-10-31T07:31:28;8.20;;;5.50;;
920;SDS011;447;51.332;6.778;2022-10-31T07:34:02;6.80;;;5.03;;
920;SDS011;447;51.332;6.778;2022-10-31T07:36:51;6.63;;;5.40;;
920;SDS011;447;51.332;6.778;2022-10-31T07:39:25;6.23;;;5.23;;
920;SDS011;447;51.332;6.778;2022-10-31T07:41:51;7.30;;;5.10;;
920;SDS011;447;51.332;6.778;2022-10-31T07:44:18;7.67;;;5.73;;
920;SDS011;447;51.332;6.778;2022-10-31T07:47:07;9.23;;;5.30;;
920;SDS011;447;51.332;6.778;2022-10-31T07:49:51;5.83;;;4.73;;
920;SDS011;447;51.332;6.778;2022-10-31T07:52:38;6.30;;;5.20;;
920;SDS011;447;51.332;6.778;2022-10-31T07:55:36;5.80;;;4.80;;
920;SDS011;447;51.332;6.778;2022-10-31T07:58:14;6.33;;;5.17;;
920;SDS011;447;51.332;6.778;2022-10-31T08:00:45;6.90;;;5.20;;
920;SDS011;447;51.332;6.778;2022-10-31T08:03:17;9.97;;;5.90;;
920;SDS011;447;51.332;6.778;2022-10-31T08:05:55;6.40;;;5.30;;
920;SDS011;447;51.332;6.778;2022-10-31T08:08:47;7.70;;;5.50;;
920;SDS011;447;51.332;6.778;2022-10-31T08:11:13;6.03;;;4.50;;
920;SDS011;447;51.332;6.778;2022-10-31T08:13:38;6.07;;;4.57;;
920;SDS011;447;51.332;6.778;2022-10-31T08:16:05;6.27;;;5.50;;
920;SDS011;447;51.332;6.778;2022-10-31T08:18:35;13.27;;;5.90;;
920;SDS011;447;51.332;6.778;2022-10-31T08:21:07;6.77;;;5.20;;
920;SDS011;447;51.332;6.778;2022-10-31T08:23:36;7.67;;;5.10;;
920;SDS011;447;51.332;6.778;2022-10-31T08:26:05;12.27;;;5.40;;
920;SDS011;447;51.332;6.778;2022-10-31T08:28:32;8.03;;;5.13;;
920;SDS011;447;51.332;6.778;2022-10-31T08:30:58;8.10;;;5.40;;
920;SDS011;447;51.332;6.778;2022-10-31T08:33:42;7.80;;;5.53;;
920;SDS011;447;51.332;6.778;2022-10-31T08:36:26;7.40;;;5.60;;
920;SDS011;447;51.332;6.778;2022-10-31T08:39:18;5.73;;;5.13;;
920;SDS011;447;51.332;6.778;2022-10-31T08:41:44;6.33;;;5.37;;
920;SDS011;447;51.332;6.778;2022-10-31T08:44:12;6.93;;;5.00;;
920;SDS011;447;51.332;6.778;2022-10-31T08:46:38;9.30;;;4.93;;
920;SDS011;447;51.332;6.778;2022-10-31T08:49:04;6.83;;;5.43;;
920;SDS011;447;51.332;6.778;2022-10-31T08:51:32;6.47;;;5.20;;
920;SDS011;447;51.332;6.778;2022-10-31T08:53:58;6.07;;;5.03;;
920;SDS011;447;51.332;6.778;2022-10-31T08:56:32;7.40;;;5.37;;
920;SDS011;447;51.332;6.778;2022-10-31T08:59:00;8.40;;;6.50;;
920;SDS011;447;51.332;6.778;2022-10-31T09:01:41;7.23;;;5.20;;
920;SDS011;447;51.332;6.778;2022-10-31T09:04:12;6.87;;;4.90;;
920;SDS011;447;51.332;6.778;2022-10-31T09:06:40;7.30;;;4.50;;
920;SDS011;447;51.332;6.778;2022-10-31T09:09:07;6.33;;;5.47;;
920;SDS011;447;51.332;6.778;2022-10-31T09:11:36;6.30;;;5.37;;
920;SDS011;447;51.332;6.778;2022-10-31T09:14:17;6.93;;;5.77;;
920;SDS011;447;51.332;6.778;2022-10-31T09:17:06;8.70;;;5.03;;
920;SDS011;447;51.332;6.778;2022-10-31T09:19:52;5.70;;;5.20;;
920;SDS011;447;51.332;6.778;2022-10-31T09:22:18;5.73;;;5.13;;
920;SDS011;447;51.332;6.778;2022-10-31T09:24:44;6.20;;;5.40;;
920;SDS011;447;51.332;6.778;2022-10-31T09:27:10;6.23;;;4.80;;
920;SDS011;447;51.332;6.778;2022-10-31T09:29:43;8.20;;;4.47;;
920;SDS011;447;51.332;6.778;2022-10-31T09:32:13;7.87;;;5.20;;
920;SDS011;447;51.332;6.778;2022-10-31T09:34:44;6.53;;;4.90;;
920;SDS011;447;51.332;6.778;2022-10-31T09:37:16;5.77;;;5.17;;
920;SDS011;447;51.332;6.778;2022-10-31T09:40:05;6.40;;;5.60;;
920;SDS011;447;51.332;6.778;2022-10-31T09:42:41;6.13;;;5.00;;
920;SDS011;447;51.332;6.778;2022-10-31T09:45:59;6.10;;;4.40;;
920;SDS011;447;51.332;6.778;2022-10-31T09:51:34;6.00;;;5.40;;
920;SDS011;447;51.332;6.778;2022-10-31T09:54:26;6.23;;;4.90;;
920;SDS011;447;51.332;6.778;2022-10-31T09:57:03;5.83;;;5.20;;
920;SDS011;447;51.332;6.778;2022-10-31T09:59:32;9.77;;;5.83;;
920;SDS011;447;51.332;6.778;2022-10-31T10:02:01;9.40;;;6.30;;
920;SDS011;447;51.332;6.778;2022-10-31T10:22:02;8.63;;;6.37;;
920;SDS011;447;51.332;6.778;2022-10-31T10:30:38;9.57;;;5.43;;
920;SDS011;447;51.332;6.778;2022-10-31T10:35:53;13.53;;;7.00;;
920;SDS011;447;51.332;6.778;2022-10-31T10:41:19;8.80;;;6.07;;
920;SDS011;447;51.332;6.778;2022-10-31T10:43:49;9.70;;;6.17;;
920;SDS011;447;51.332;6.778;2022-10-31T10:49:35;9.53;;;6.50;;
920;SDS011;447;51.332;6.778;2022-10-31T10:54:59;9.00;;;5.73;;
920;SDS011;447;51.332;6.778;2022-10-31T11:00:26;9.57;;;7.00;;
920;SDS011;447;51.332;6.778;2022-10-31T11:02:53;10.80;;;6.03;;
920;SDS011;447;51.332;6.778;2022-10-31T11:07:48;10.27;;;6.87;;
920;SDS011;447;51.332;6.778;2022-10-31T11:10:15;7.57;;;6.20;;
920;SDS011;447;51.332;6.778;2022-10-31T11:12:45;10.97;;;7.03;;
920;SDS011;447;51.332;6.778;2022-10-31T11:15:24;8.77;;;6.47;;
920;SDS011;447;51.332;6.778;2022-10-31T11:17:52;7.93;;;6.47;;
920;SDS011;447;51.332;6.778;2022-10-31T11:22:48;100.33;;;21.17;;
920;SDS011;447;51.332;6.778;2022-10-31T11:27:45;27.33;;;13.33;;
920;SDS011;447;51.332;6.778;2022-10-31T11:30:16;34.40;;;14.73;;
920;SDS011;447;51.332;6.778;2022-10-31T11:32:49;32.73;;;13.50;;
920;SDS011;447;51.332;6.778;2022-10-31T11:35:18;30.03;;;13.33;;
920;SDS011;447;51.332;6.778;2022-10-31T11:37:46;32.70;;;13.47;;
920;SDS011;447;51.332;6.778;2022-10-31T11:40:24;24.27;;;12.30;;
920;SDS011;447;51.332;6.778;2022-10-31T11:42:51;18.83;;;12.80;;
920;SDS011;447;51.332;6.778;2022-10-31T11:47:56;24.07;;;12.27;;
920;SDS011;447;51.332;6.778;2022-10-31T11:50:40;18.00;;;11.40;;
920;SDS011;447;51.332;6.778;2022-10-31T11:53:12;18.50;;;11.97;;
920;SDS011;447;51.332;6.778;2022-10-31T11:55:45;19.17;;;11.17;;
920;SDS011;447;51.332;6.778;2022-10-31T11:58:20;14.47;;;9.47;;
920;SDS011;447;51.332;6.778;2022-10-31T12:00:50;20.00;;;10.40;;
920;SDS011;447;51.332;6.778;2022-10-31T12:05:56;21.13;;;11.53;;
920;SDS011;447;51.332;6.778;2022-10-31T12:08:29;21.00;;;9.83;;
920;SDS011;447;51.332;6.778;2022-10-31T12:16:31;14.63;;;9.00;;
920;SDS011;447;51.332;6.778;2022-10-31T12:19:24;17.37;;;8.20;;
920;SDS011;447;51.332;6.778;2022-10-31T12:32:56;12.90;;;7.30;;
920;SDS011;447;51.332;6.778;2022-10-31T12:35:51;15.93;;;6.77;;
920;SDS011;447;51.332;6.778;2022-10-31T12:41:14;18.60;;;7.33;;
920;SDS011;447;51.332;6.778;2022-10-31T12:43:56;15.27;;;7.53;;
920;SDS011;447;51.332;6.778;2022-10-31T12:46:42;15.63;;;6.80;;
920;SDS011;447;51.332;6.778;2022-10-31T12:49:39;18.67;;;6.60;;
920;SDS011;447;51.332;6.778;2022-10-31T12:52:36;10.73;;;6.50;;
920;SDS011;447;51.332;6.778;2022-10-31T13:01:03;11.97;;;5.93;;
920;SDS011;447;51.332;6.778;2022-10-31T13:03:51;11.73;;;6.53;;
920;SDS011;447;51.332;6.778;2022-10-31T13:06:50;20.57;;;5.70;;
920;SDS011;447;51.332;6.778;2022-10-31T13:09:26;22.80;;;6.50;;
920;SDS011;447;51.332;6.778;2022-10-31T13:12:02;15.47;;;5.60;;
920;SDS011;447;51.332;6.778;2022-10-31T13:14:35;12.70;;;6.30;;
920;SDS011;447;51.332;6.778;2022-10-31T13:17:14;9.53;;;4.97;;
920;SDS011;447;51.332;6.778;2022-10-31T13:19:54;16.37;;;6.37;;
920;SDS011;447;51.332;6.778;2022-10-31T13:22:31;14.47;;;6.10;;
920;SDS011;447;51.332;6.778;2022-10-31T13:27:53;9.83;;;5.40;;
920;SDS011;447;51.332;6.778;2022-10-31T13:30:22;9.20;;;5.53;;
920;SDS011;447;51.332;6.778;2022-10-31T13:32:56;14.67;;;5.90;;
920;SDS011;447;51.332;6.778;2022-10-31T13:43:28;8.90;;;4.90;;
920;SDS011;447;51.332;6.778;2022-10-31T13:46:24;12.07;;;5.40;;
920;SDS011;447;51.332;6.778;2022-10-31T13:48:59;12.00;;;6.13;;
920;SDS011;447;51.332;6.778;2022-10-31T13:51:29;9.37;;;5.20;;
920;SDS011;447;51.332;6.778;2022-10-31T13:53:58;7.20;;;5.53;;
920;SDS011;447;51.332;6.778;2022-10-31T13:57:06;8.00;;;5.07;;
920;SDS011;447;51.332;6.778;2022-10-31T13:59:56;8.90;;;5.77;;
920;SDS011;447;51.332;6.778;2022-10-31T14:02:27;7.20;;;4.33;;
920;SDS011;447;51.332;6.778;2022-10-31T14:05:01;7.00;;;4.70;;
920;SDS011;447;51.332;6.778;2022-10-31T14:07:42;11.03;;;5.40;;
920;SDS011;447;51.332;6.778;2022-10-31T14:12:46;7.33;;;5.67;;
920;SDS011;447;51.332;6.778;2022-10-31T14:17:52;7.93;;;4.73;;
920;SDS011;447;51.332;6.778;2022-10-31T14:26:07;9.80;;;5.63;;
920;SDS011;447;51.332;6.778;2022-10-31T14:28:45;6.50;;;4.70;;
920;SDS011;447;51.332;6.778;2022-10-31T14:45:52;6.53;;;4.80;;
920;SDS011;447;51.332;6.778;2022-10-31T14:50:58;8.33;;;4.43;;
920;SDS011;447;51.332;6.778;2022-10-31T14:53:36;6.30;;;4.47;;
920;SDS011;447;51.332;6.778;2022-10-31T14:56:13;7.30;;;4.43;;
920;SDS011;447;51.332;6.778;2022-10-31T14:58:46;5.27;;;4.23;;
920;SDS011;447;51.332;6.778;2022-10-31T15:04:05;6.97;;;5.07;;
920;SDS011;447;51.332;6.778;2022-10-31T15:06:44;11.53;;;5.50;;
920;SDS011;447;51.332;6.778;2022-10-31T15:09:20;7.30;;;4.33;;
920;SDS011;447;51.332;6.778;2022-10-31T15:11:51;7.63;;;5.20;;
920;SDS011;447;51.332;6.778;2022-10-31T15:14:22;6.13;;;5.07;;
920;SDS011;447;51.332;6.778;2022-10-31T15:16:53;7.53;;;5.00;;
920;SDS011;447;51.332;6.778;2022-10-31T15:19:21;5.90;;;4.27;;
920;SDS011;447;51.332;6.778;2022-10-31T15:21:57;7.60;;;5.00;;
920;SDS011;447;51.332;6.778;2022-10-31T15:24:29;6.83;;;4.10;;
920;SDS011;447;51.332;6.778;2022-10-31T15:27:02;7.60;;;4.90;;
920;SDS011;447;51.332;6.778;2022-10-31T15:29:31;6.73;;;4.77;;
920;SDS011;447;51.332;6.778;2022-10-31T15:34:39;12.90;;;5.60;;
920;SDS011;447;51.332;6.778;2022-10-31T15:37:13;6.07;;;4.87;;
920;SDS011;447;51.332;6.778;2022-10-31T15:39:46;6.90;;;4.50;;
920;SDS011;447;51.332;6.778;2022-10-31T15:42:57;8.20;;;5.43;;
920;SDS011;447;51.332;6.778;2022-10-31T15:45:17;6.73;;;5.27;;
920;SDS011;447;51.332;6.778;2022-10-31T15:52:55;6.13;;;5.50;;
920;SDS011;447;51.332;6.778;2022-10-31T15:55:28;6.57;;;4.50;;
920;SDS011;447;51.332;6.778;2022-10-31T15:58:13;5.37;;;4.67;;
920;SDS011;447;51.332;6.778;2022-10-31T16:00:41;5.57;;;4.97;;
920;SDS011;447;51.332;6.778;2022-10-31T16:13:38;9.83;;;4.40;;
920;SDS011;447;51.332;6.778;2022-10-31T16:16:20;6.40;;;4.43;;
920;SDS011;447;51.332;6.778;2022-10-31T16:18:49;5.60;;;4.30;;
920;SDS011;447;51.332;6.778;2022-10-31T16:21:22;7.47;;;4.77;;
920;SDS011;447;51.332;6.778;2022-10-31T16:23:55;7.37;;;5.10;;
920;SDS011;447;51.332;6.778;2022-10-31T16:26:28;8.30;;;4.37;;
920;SDS011;447;51.332;6.778;2022-10-31T16:28:55;9.33;;;4.63;;
920;SDS011;447;51.332;6.778;2022-10-31T16:31:39;6.43;;;4.50;;
920;SDS011;447;51.332;6.778;2022-10-31T16:34:14;8.23;;;4.50;;
920;SDS011;447;51.332;6.778;2022-10-31T16:36:45;7.23;;;4.10;;
920;SDS011;447;51.332;6.778;2022-10-31T16:39:11;6.60;;;4.87;;
920;SDS011;447;51.332;6.778;2022-10-31T16:41:40;5.50;;;4.60;;
920;SDS011;447;51.332;6.778;2022-10-31T16:44:21;7.03;;;5.00;;
920;SDS011;447;51.332;6.778;2022-10-31T16:47:27;6.60;;;4.50;;
920;SDS011;447;51.332;6.778;2022-10-31T16:49:50;9.80;;;4.47;;
920;SDS011;447;51.332;6.778;2022-10-31T16:52:19;5.53;;;4.60;;
920;SDS011;447;51.332;6.778;2022-10-31T16:54:47;6.03;;;3.90;;
920;SDS011;447;51.332;6.778;2022-10-31T16:57:16;4.93;;;4.20;;
920;SDS011;447;51.332;6.778;2022-10-31T16:59:48;7.43;;;4.83;;
920;SDS011;447;51.332;6.778;2022-10-31T17:02:30;5.27;;;3.93;;
920;SDS011;447;51.332;6.778;2022-10-31T17:04:56;5.50;;;4.40;;
920;SDS011;447;51.332;6.778;2022-10-31T17:07:22;6.50;;;4.13;;
920;SDS011;447;51.332;6.778;2022-10-31T17:09:49;7.50;;;4.83;;
920;SDS011;447;51.332;6.778;2022-10-31T17:12:18;7.37;;;4.43;;
920;SDS011;447;51.332;6.778;2022-10-31T17:14:50;7.13;;;4.90;;
920;SDS011;447;51.332;6.778;2022-10-31T17:17:21;4.57;;;4.13;;
920;SDS011;447;51.332;6.778;2022-10-31T17:19:47;8.40;;;4.90;;
920;SDS011;447;51.332;6.778;2022-10-31T17:22:13;9.17;;;4.60;;
920;SDS011;447;51.332;6.778;2022-10-31T17:24:40;8.10;;;4.60;;
920;SDS011;447;51.332;6.778;2022-10-31T17:27:08;5.50;;;4.50;;
920;SDS011;447;51.332;6.778;2022-10-31T17:29:36;9.30;;;5.60;;
920;SDS011;447;51.332;6.778;2022-10-31T17:32:07;6.30;;;4.70;;
920;SDS011;447;51.332;6.778;2022-10-31T17:34:33;7.47;;;4.73;;
920;SDS011;447;51.332;6.778;2022-10-31T17:36:59;8.00;;;4.90;;
920;SDS011;447;51.332;6.778;2022-10-31T17:39:29;5.07;;;4.17;;
920;SDS011;447;51.332;6.778;2022-10-31T17:42:01;5.70;;;4.67;;
920;SDS011;447;51.332;6.778;2022-10-31T17:44:29;7.60;;;4.30;;
920;SDS011;447;51.332;6.778;2022-10-31T17:46:55;6.10;;;5.10;;
920;SDS011;447;51.332;6.778;2022-10-31T17:49:26;7.53;;;4.70;;
920;SDS011;447;51.332;6.778;2022-10-31T17:51:52;8.60;;;4.70;;
920;SDS011;447;51.332;6.778;2022-10-31T17:54:20;7.87;;;4.50;;
920;SDS011;447;51.332;6.778;2022-10-31T17:56:48;7.03;;;4.33;;
920;SDS011;447;51.332;6.778;2022-10-31T17:59:19;6.57;;;4.60;;
920;SDS011;447;51.332;6.778;2022-10-31T18:01:47;9.27;;;5.23;;
920;SDS011;447;51.332;6.778;2022-10-31T18:04:13;7.63;;;5.10;;
920;SDS011;447;51.332;6.778;2022-10-31T18:06:44;7.23;;;4.50;;
920;SDS011;447;51.332;6.778;2022-10-31T18:09:14;8.43;;;4.83;;
920;SDS011;447;51.332;6.778;2022-10-31T18:11:40;9.90;;;4.43;;
920;SDS011;447;51.332;6.778;2022-10-31T18:14:07;6.77;;;4.87;;
920;SDS011;447;51.332;6.778;2022-10-31T18:16:54;7.70;;;5.10;;
920;SDS011;447;51.332;6.778;2022-10-31T18:19:20;5.37;;;3.97;;
920;SDS011;447;51.332;6.778;2022-10-31T18:21:48;9.50;;;4.00;;
920;SDS011;447;51.332;6.778;2022-10-31T18:24:18;10.40;;;4.60;;
920;SDS011;447;51.332;6.778;2022-10-31T18:26:47;7.87;;;3.87;;
920;SDS011;447;51.332;6.778;2022-10-31T18:29:13;7.40;;;4.03;;
920;SDS011;447;51.332;6.778;2022-10-31T18:31:39;9.13;;;4.60;;
920;SDS011;447;51.332;6.778;2022-10-31T18:34:07;7.43;;;3.90;;
920;SDS011;447;51.332;6.778;2022-10-31T18:36:33;5.00;;;3.53;;
920;SDS011;447;51.332;6.778;2022-10-31T18:38:59;6.20;;;4.10;;
920;SDS011;447;51.332;6.778;2022-10-31T18:41:32;6.33;;;4.20;;
920;SDS011;447;51.332;6.778;2022-10-31T18:43:58;6.87;;;4.23;;
920;SDS011;447;51.332;6.778;2022-10-31T18:46:29;7.63;;;4.13;;
920;SDS011;447;51.332;6.778;2022-10-31T18:49:01;11.80;;;4.37;;
920;SDS011;447;51.332;6.778;2022-10-31T18:51:30;6.90;;;4.17;;
920;SDS011;447;51.332;6.778;2022-10-31T18:53:59;7.07;;;3.70;;
920;SDS011;447;51.332;6.778;2022-10-31T18:56:31;5.47;;;3.60;;
920;SDS011;447;51.332;6.778;2022-10-31T18:59:16;5.63;;;4.07;;
920;SDS011;447;51.332;6.778;2022-10-31T19:01:47;6.43;;;4.50;;
920;SDS011;447;51.332;6.778;2022-10-31T19:04:16;8.70;;;3.93;;
920;SDS011;447;51.332;6.778;2022-10-31T19:06:45;6.57;;;4.93;;
920;SDS011;447;51.332;6.778;2022-10-31T19:09:13;5.70;;;3.90;;
920;SDS011;447;51.332;6.778;2022-10-31T19:11:39;6.50;;;3.93;;